Hamnavoe — VSTY7 — position and weather

sailwx.info

Track history (hours):
 
Tides and Currents Weather Stations Pressure Air Temp Water Temp Dewpoint Dewpoint Depression Visibility Wind Speed Wind Dir Waves Ship Positions

Hamnavoe

Operator: NorthLink Orkey & Shetland Ferries Ltd

Last reported at 2016-Feb-13 13:33 UTC. Time now 2016-Feb-13 15:19 UTC.
Position N 58°58' W 003°18'.

Length 112 m; draft 4.2 m.

Type: Ship. MMSI: 235449000.

Date/timePositionNaut miles runAvg speedWind from/ knotsBaromVisibWave heightAir tempDewpointWater temp
2016-Feb-13 13:33N 58°58' W 003°18'1110.8
2016-Feb-13 12:33N 58°49' W 003°29'10 4.4
2016-Feb-13 10:15N 58°39' W 003°32'1319.0
2016-Feb-13 09:34N 58°52' W 003°28'8 7.6
2016-Feb-13 08:28N 58°58' W 003°18'0 0.0
2016-Feb-13 07:31N 58°58' W 003°18'0 0.0
2016-Feb-13 06:19N 58°58' W 003°18'0 0.0
2016-Feb-13 05:31N 58°58' W 003°18'0 0.0
2016-Feb-13 04:31N 58°58' W 003°18'0 0.0
2016-Feb-13 03:31N 58°58' W 003°18'0 0.0
2016-Feb-13 02:31N 58°58' W 003°18'0 0.0
2016-Feb-13 01:31N 58°58' W 003°18'0 0.0
2016-Feb-13 00:28N 58°58' W 003°18'0 0.0
2016-Feb-12 23:31N 58°58' W 003°18'0 0.0
2016-Feb-12 22:31N 58°58' W 003°18'0 0.0
2016-Feb-12 21:31N 58°58' W 003°18'0 0.0
2016-Feb-12 20:32N 58°58' W 003°18'1110.9
2016-Feb-12 19:33N 58°49' W 003°29'2 1.1
2016-Feb-12 17:33N 58°47' W 003°29'1312.5
2016-Feb-12 16:33N 58°58' W 003°18'0 0.0
2016-Feb-12 15:32N 58°58' W 003°18'0 0.0
2016-Feb-12 14:23N 58°58' W 003°18'0 0.0
2016-Feb-12 13:32N 58°58' W 003°18'0 0.0
2016-Feb-12 12:32N 58°58' W 003°18'0 0.0
2016-Feb-12 11:32N 58°58' W 003°18'0 0.0
2016-Feb-12 10:32N 58°58' W 003°18'7 7.6
2016-Feb-12 09:33N 58°52' W 003°28'10 4.9
2016-Feb-12 07:34N 58°43' W 003°30'1616.0
2016-Feb-12 06:34N 58°57' W 003°17'1 0.6
2016-Feb-12 05:32N 58°58' W 003°18'0 0.0
2016-Feb-12 04:26N 58°58' W 003°18'0 0.0
2016-Feb-12 03:32N 58°58' W 003°18'0 0.0
2016-Feb-12 02:32N 58°58' W 003°18'0 0.0
2016-Feb-12 01:32N 58°58' W 003°18'0 0.0
2016-Feb-12 00:32N 58°58' W 003°18'0 0.0
2016-Feb-11 23:32N 58°58' W 003°18'0 0.0
2016-Feb-11 22:32N 58°58' W 003°18'0 0.0
2016-Feb-11 21:32N 58°58' W 003°18'0 0.0
2016-Feb-11 20:33N 58°58' W 003°18'1212.2
2016-Feb-11 19:33N 58°47' W 003°29'0 0.2
2016-Feb-11 17:33N 58°47' W 003°30'1212.5
2016-Feb-11 16:33N 58°58' W 003°18'0 0.0
2016-Feb-11 14:13N 58°58' W 003°18'0 0.0
2016-Feb-11 13:31N 58°58' W 003°18'0 0.0
2016-Feb-11 12:10N 58°58' W 003°18'0 0.0
2016-Feb-11 11:28N 58°58' W 003°18'0 0.0
2016-Feb-11 10:25N 58°58' W 003°18'1112.2
2016-Feb-11 09:33N 58°49' W 003°29'5 2.3
2016-Feb-11 07:32N 58°45' W 003°31'1515.1
2016-Feb-11 06:33N 58°58' W 003°18'0 0.2
2016-Feb-11 05:33N 58°58' W 003°18'0 0.0
2016-Feb-11 04:34N 58°58' W 003°18'0 0.0
2016-Feb-11 03:33N 58°58' W 003°18'0 0.0
2016-Feb-11 02:33N 58°58' W 003°18'0 0.0
2016-Feb-11 01:33N 58°58' W 003°18'0 0.0
2016-Feb-11 00:33N 58°58' W 003°18'0 0.0
2016-Feb-10 23:33N 58°58' W 003°18'0 0.0
2016-Feb-10 22:33N 58°58' W 003°18'0 0.0
2016-Feb-10 21:33N 58°58' W 003°18'0 0.0
2016-Feb-10 20:33N 58°58' W 003°18'1313.5
2016-Feb-10 19:33N 58°46' W 003°30'2 0.9
2016-Feb-10 17:33N 58°48' W 003°29'1211.7
2016-Feb-10 16:33N 58°58' W 003°18'0 0.0
2016-Feb-10 15:32N 58°58' W 003°18'0 0.0
2016-Feb-10 12:26N 58°58' W 003°18'0 0.0
2016-Feb-10 11:26N 58°58' W 003°18'0 0.0
2016-Feb-10 10:20N 58°58' W 003°18'8 9.8
2016-Feb-10 09:33N 58°51' W 003°11'13 6.6
2016-Feb-10 07:33N 58°42' W 003°30'1616.1
2016-Feb-10 06:33N 58°57' W 003°18'1 1.0
2016-Feb-10 05:31N 58°58' W 003°18'0 0.0
2016-Feb-10 04:31N 58°58' W 003°18'0 0.0
2016-Feb-10 03:31N 58°58' W 003°18'0 0.0
2016-Feb-10 02:31N 58°58' W 003°18'0 0.0
2016-Feb-10 01:31N 58°58' W 003°18'0 0.0
2016-Feb-10 00:31N 58°58' W 003°18'0 0.0
2016-Feb-09 23:31N 58°58' W 003°18'0 0.0
2016-Feb-09 22:31N 58°58' W 003°18'0 0.0
2016-Feb-09 21:31N 58°58' W 003°18'1 0.8
2016-Feb-09 20:33N 58°57' W 003°17'1312.9
2016-Feb-09 19:33N 58°44' W 003°19'10 8.3
2016-Feb-09 18:19N 58°37' W 003°32'1114.8
2016-Feb-09 17:33N 58°48' W 003°29'1211.7
2016-Feb-09 16:33N 58°58' W 003°18'0 0.0
2016-Feb-09 13:18N 58°58' W 003°18'0 0.0
2016-Feb-09 11:30N 58°58' W 003°18'0 0.0
2016-Feb-09 10:26N 58°58' W 003°18'1011.3
2016-Feb-09 09:33N 58°49' W 003°09'12 6.2
2016-Feb-09 07:33N 58°43' W 003°30'1515.5
2016-Feb-09 06:34N 58°57' W 003°17'1 0.3
2016-Feb-09 04:10N 58°58' W 003°18'0 0.0
2016-Feb-09 03:31N 58°58' W 003°18'0 0.0
2016-Feb-09 02:28N 58°58' W 003°18'0 0.0
2016-Feb-09 01:25N 58°58' W 003°18'0 0.0
2016-Feb-09 00:31N 58°58' W 003°18'0 0.0
2016-Feb-08 23:31N 58°58' W 003°18'0 0.0
2016-Feb-08 22:28N 58°58' W 003°18'0 0.0
2016-Feb-08 21:28N 58°58' W 003°18'0 0.0
2016-Feb-08 20:31N 58°58' W 003°18'1111.4
2016-Feb-08 19:32N 58°48' W 003°29'0 0.2
2016-Feb-08 17:33N 58°48' W 003°29'1111.5
2016-Feb-08 16:33N 58°58' W 003°18'0 0.0
2016-Feb-08 15:33N 58°58' W 003°18'0 0.0
2016-Feb-08 12:33N 58°58' W 003°18'0 0.0
2016-Feb-08 10:12N 58°58' W 003°18'711.2
2016-Feb-08 09:33N 58°53' W 003°28'10 5.0
2016-Feb-08 07:33N 58°43' W 003°30'1615.6
2016-Feb-08 06:33N 58°57' W 003°17'1 0.7
2016-Feb-08 05:31N 58°58' W 003°18'0 0.0
2016-Feb-08 04:31N 58°58' W 003°18'0 0.0
2016-Feb-08 03:28N 58°58' W 003°18'0 0.0
2016-Feb-08 02:31N 58°58' W 003°18'0 0.0
2016-Feb-08 01:16N 58°58' W 003°18'0 0.0
2016-Feb-08 00:28N 58°58' W 003°18'0 0.0
2016-Feb-07 23:31N 58°58' W 003°18'0 0.0
2016-Feb-07 21:25N 58°58' W 003°18'0 0.0
2016-Feb-07 20:32N 58°58' W 003°18'1111.0
2016-Feb-07 19:33N 58°49' W 003°29'3 1.4
2016-Feb-07 17:33N 58°46' W 003°29'1313.3
2016-Feb-07 16:33N 58°58' W 003°18'0 0.0
2016-Feb-07 14:23N 58°58' W 003°18'0 0.0
2016-Feb-07 13:29N 58°58' W 003°18'1010.7
2016-Feb-07 12:33N 58°50' W 003°29'9 3.8
2016-Feb-07 10:06N 58°40' W 003°31'1018.4
2016-Feb-07 09:33N 58°50' W 003°28'9 2.7
2016-Feb-07 06:10N 58°58' W 003°18'0 0.0
2016-Feb-07 05:31N 58°58' W 003°18'0 0.0
2016-Feb-07 04:25N 58°58' W 003°18'0 0.0
2016-Feb-07 01:19N 58°58' W 003°18'0 0.0
2016-Feb-07 00:19N 58°58' W 003°18'0 0.0
2016-Feb-06 20:28N 58°58' W 003°18'1112.3
2016-Feb-06 19:33N 58°48' W 003°30'2 1.2
2016-Feb-06 17:33N 58°46' W 003°30'13 3.3
2016-Feb-06 13:30N 58°58' W 003°18'1111.7
2016-Feb-06 12:33N 58°48' W 003°29'8 3.3
2016-Feb-06 10:08N 58°40' W 003°31'1017.9
2016-Feb-06 09:33N 58°51' W 003°28'9 8.7
2016-Feb-06 08:31N 58°58' W 003°18'0 0.0
2016-Feb-06 07:19N 58°58' W 003°18'0 0.0
2016-Feb-06 06:31N 58°58' W 003°18'0 0.0
2016-Feb-06 05:07N 58°58' W 003°18'0 0.0
2016-Feb-06 04:25N 58°58' W 003°18'0 0.0
2016-Feb-06 03:31N 58°58' W 003°18'0 0.0
2016-Feb-06 02:31N 58°58' W 003°18'0 0.0
2016-Feb-06 01:31N 58°58' W 003°18'0 0.0
2016-Feb-06 00:31N 58°58' W 003°18'0 0.0
2016-Feb-05 23:31N 58°58' W 003°18'0 0.0
2016-Feb-05 22:31N 58°58' W 003°18'0 0.0
2016-Feb-05 21:31N 58°58' W 003°18'0 0.0
2016-Feb-05 20:26N 58°58' W 003°18'1112.5
2016-Feb-05 19:33N 58°49' W 003°30'12 9.0
2016-Feb-05 18:13N 58°37' W 003°32'1217.6
2016-Feb-05 17:33N 58°48' W 003°29'1111.2
2016-Feb-05 16:33N 58°58' W 003°18'0 0.0
2016-Feb-05 10:10N 58°58' W 003°18'711.3
2016-Feb-05 09:33N 58°53' W 003°28'11 5.4
2016-Feb-05 07:33N 58°43' W 003°30'1615.7
2016-Feb-05 06:33N 58°57' W 003°18'1 0.9
2016-Feb-05 05:26N 58°58' W 003°18'0 0.0
2016-Feb-05 04:26N 58°58' W 003°18'0 0.0
2016-Feb-05 03:14N 58°58' W 003°18'0 0.0
2016-Feb-05 02:20N 58°58' W 003°18'0 0.0
2016-Feb-05 01:32N 58°58' W 003°18'0 0.0
2016-Feb-04 20:24N 58°58' W 003°18'1113.3
2016-Feb-04 19:33N 58°48' W 003°29'1 0.7
2016-Feb-04 17:33N 58°47' W 003°29'12 2.0
2016-Feb-04 11:22N 58°58' W 003°18'0 0.0
2016-Feb-04 10:10N 58°58' W 003°18'710.9
2016-Feb-04 09:33N 58°53' W 003°27'11 5.7
2016-Feb-04 07:33N 58°42' W 003°30'1616.3
2016-Feb-04 06:33N 58°57' W 003°17'1 0.1
2016-Feb-04 01:25N 58°58' W 003°18'0 0.0
2016-Feb-04 00:31N 58°58' W 003°18'0 0.0
2016-Feb-03 23:31N 58°58' W 003°18'0 0.0
2016-Feb-03 22:31N 58°58' W 003°18'0 0.0
2016-Feb-03 21:25N 58°58' W 003°18'0 0.0
2016-Feb-03 20:33N 58°58' W 003°18'1313.0
2016-Feb-03 19:33N 58°46' W 003°29'1 0.4
2016-Feb-03 17:33N 58°47' W 003°29'12 4.9
2016-Feb-03 15:04N 58°58' W 003°18'0 0.0
2016-Feb-03 14:28N 58°58' W 003°18'  
Track history (hours):
 
Tides and Currents Weather Stations Pressure Air Temp Water Temp Dewpoint Dewpoint Depression Visibility Wind Speed Wind Dir Waves Ship Positions

Hamnavoe

Operator: NorthLink Orkey & Shetland Ferries Ltd

Last reported at 2016-Feb-13 13:33 UTC. Time now 2016-Feb-13 15:19 UTC.
Position N 58°58' W 003°18'.

Length 112 m; draft 4.2 m.

Type: Ship. MMSI: 235449000.

Date/timePositionNaut miles runAvg speedWind from/ knotsBaromVisibWave heightAir tempDewpointWater temp
2016-Feb-13 13:33N 58°58' W 003°18'1110.8
2016-Feb-13 12:33N 58°49' W 003°29'10 4.4
2016-Feb-13 10:15N 58°39' W 003°32'1319.0
2016-Feb-13 09:34N 58°52' W 003°28'8 7.6
2016-Feb-13 08:28N 58°58' W 003°18'0 0.0
2016-Feb-13 07:31N 58°58' W 003°18'0 0.0
2016-Feb-13 06:19N 58°58' W 003°18'0 0.0
2016-Feb-13 05:31N 58°58' W 003°18'0 0.0
2016-Feb-13 04:31N 58°58' W 003°18'0 0.0
2016-Feb-13 03:31N 58°58' W 003°18'0 0.0
2016-Feb-13 02:31N 58°58' W 003°18'0 0.0
2016-Feb-13 01:31N 58°58' W 003°18'0 0.0
2016-Feb-13 00:28N 58°58' W 003°18'0 0.0
2016-Feb-12 23:31N 58°58' W 003°18'0 0.0
2016-Feb-12 22:31N 58°58' W 003°18'0 0.0
2016-Feb-12 21:31N 58°58' W 003°18'0 0.0
2016-Feb-12 20:32N 58°58' W 003°18'1110.9
2016-Feb-12 19:33N 58°49' W 003°29'2 1.1
2016-Feb-12 17:33N 58°47' W 003°29'1312.5
2016-Feb-12 16:33N 58°58' W 003°18'0 0.0
2016-Feb-12 15:32N 58°58' W 003°18'0 0.0
2016-Feb-12 14:23N 58°58' W 003°18'0 0.0
2016-Feb-12 13:32N 58°58' W 003°18'0 0.0
2016-Feb-12 12:32N 58°58' W 003°18'0 0.0
2016-Feb-12 11:32N 58°58' W 003°18'0 0.0
2016-Feb-12 10:32N 58°58' W 003°18'7 7.6
2016-Feb-12 09:33N 58°52' W 003°28'10 4.9
2016-Feb-12 07:34N 58°43' W 003°30'1616.0
2016-Feb-12 06:34N 58°57' W 003°17'1 0.6
2016-Feb-12 05:32N 58°58' W 003°18'0 0.0
2016-Feb-12 04:26N 58°58' W 003°18'0 0.0
2016-Feb-12 03:32N 58°58' W 003°18'0 0.0
2016-Feb-12 02:32N 58°58' W 003°18'0 0.0
2016-Feb-12 01:32N 58°58' W 003°18'0 0.0
2016-Feb-12 00:32N 58°58' W 003°18'0 0.0
2016-Feb-11 23:32N 58°58' W 003°18'0 0.0
2016-Feb-11 22:32N 58°58' W 003°18'0 0.0
2016-Feb-11 21:32N 58°58' W 003°18'0 0.0
2016-Feb-11 20:33N 58°58' W 003°18'1212.2
2016-Feb-11 19:33N 58°47' W 003°29'0 0.2
2016-Feb-11 17:33N 58°47' W 003°30'1212.5
2016-Feb-11 16:33N 58°58' W 003°18'0 0.0
2016-Feb-11 14:13N 58°58' W 003°18'0 0.0
2016-Feb-11 13:31N 58°58' W 003°18'0 0.0
2016-Feb-11 12:10N 58°58' W 003°18'0 0.0
2016-Feb-11 11:28N 58°58' W 003°18'0 0.0
2016-Feb-11 10:25N 58°58' W 003°18'1112.2
2016-Feb-11 09:33N 58°49' W 003°29'5 2.3
2016-Feb-11 07:32N 58°45' W 003°31'1515.1
2016-Feb-11 06:33N 58°58' W 003°18'0 0.2
2016-Feb-11 05:33N 58°58' W 003°18'0 0.0
2016-Feb-11 04:34N 58°58' W 003°18'0 0.0
2016-Feb-11 03:33N 58°58' W 003°18'0 0.0
2016-Feb-11 02:33N 58°58' W 003°18'0 0.0
2016-Feb-11 01:33N 58°58' W 003°18'0 0.0
2016-Feb-11 00:33N 58°58' W 003°18'0 0.0
2016-Feb-10 23:33N 58°58' W 003°18'0 0.0
2016-Feb-10 22:33N 58°58' W 003°18'0 0.0
2016-Feb-10 21:33N 58°58' W 003°18'0 0.0
2016-Feb-10 20:33N 58°58' W 003°18'1313.5
2016-Feb-10 19:33N 58°46' W 003°30'2 0.9
2016-Feb-10 17:33N 58°48' W 003°29'1211.7
2016-Feb-10 16:33N 58°58' W 003°18'0 0.0
2016-Feb-10 15:32N 58°58' W 003°18'0 0.0
2016-Feb-10 12:26N 58°58' W 003°18'0 0.0
2016-Feb-10 11:26N 58°58' W 003°18'0 0.0
2016-Feb-10 10:20N 58°58' W 003°18'8 9.8
2016-Feb-10 09:33N 58°51' W 003°11'13 6.6
2016-Feb-10 07:33N 58°42' W 003°30'1616.1
2016-Feb-10 06:33N 58°57' W 003°18'1 1.0
2016-Feb-10 05:31N 58°58' W 003°18'0 0.0
2016-Feb-10 04:31N 58°58' W 003°18'0 0.0
2016-Feb-10 03:31N 58°58' W 003°18'0 0.0
2016-Feb-10 02:31N 58°58' W 003°18'0 0.0
2016-Feb-10 01:31N 58°58' W 003°18'0 0.0
2016-Feb-10 00:31N 58°58' W 003°18'0 0.0
2016-Feb-09 23:31N 58°58' W 003°18'0 0.0
2016-Feb-09 22:31N 58°58' W 003°18'0 0.0
2016-Feb-09 21:31N 58°58' W 003°18'1 0.8
2016-Feb-09 20:33N 58°57' W 003°17'1312.9
2016-Feb-09 19:33N 58°44' W 003°19'10 8.3
2016-Feb-09 18:19N 58°37' W 003°32'1114.8
2016-Feb-09 17:33N 58°48' W 003°29'1211.7
2016-Feb-09 16:33N 58°58' W 003°18'0 0.0
2016-Feb-09 13:18N 58°58' W 003°18'0 0.0
2016-Feb-09 11:30N 58°58' W 003°18'0 0.0
2016-Feb-09 10:26N 58°58' W 003°18'1011.3
2016-Feb-09 09:33N 58°49' W 003°09'12 6.2
2016-Feb-09 07:33N 58°43' W 003°30'1515.5
2016-Feb-09 06:34N 58°57' W 003°17'1 0.3
2016-Feb-09 04:10N 58°58' W 003°18'0 0.0
2016-Feb-09 03:31N 58°58' W 003°18'0 0.0
2016-Feb-09 02:28N 58°58' W 003°18'0 0.0
2016-Feb-09 01:25N 58°58' W 003°18'0 0.0
2016-Feb-09 00:31N 58°58' W 003°18'0 0.0
2016-Feb-08 23:31N 58°58' W 003°18'0 0.0
2016-Feb-08 22:28N 58°58' W 003°18'0 0.0
2016-Feb-08 21:28N 58°58' W 003°18'0 0.0
2016-Feb-08 20:31N 58°58' W 003°18'1111.4
2016-Feb-08 19:32N 58°48' W 003°29'0 0.2
2016-Feb-08 17:33N 58°48' W 003°29'1111.5
2016-Feb-08 16:33N 58°58' W 003°18'0 0.0
2016-Feb-08 15:33N 58°58' W 003°18'0 0.0
2016-Feb-08 12:33N 58°58' W 003°18'0 0.0
2016-Feb-08 10:12N 58°58' W 003°18'711.2
2016-Feb-08 09:33N 58°53' W 003°28'10 5.0
2016-Feb-08 07:33N 58°43' W 003°30'1615.6
2016-Feb-08 06:33N 58°57' W 003°17'1 0.7
2016-Feb-08 05:31N 58°58' W 003°18'0 0.0
2016-Feb-08 04:31N 58°58' W 003°18'0 0.0
2016-Feb-08 03:28N 58°58' W 003°18'0 0.0
2016-Feb-08 02:31N 58°58' W 003°18'0 0.0
2016-Feb-08 01:16N 58°58' W 003°18'0 0.0
2016-Feb-08 00:28N 58°58' W 003°18'0 0.0
2016-Feb-07 23:31N 58°58' W 003°18'0 0.0
2016-Feb-07 21:25N 58°58' W 003°18'0 0.0
2016-Feb-07 20:32N 58°58' W 003°18'1111.0
2016-Feb-07 19:33N 58°49' W 003°29'3 1.4
2016-Feb-07 17:33N 58°46' W 003°29'1313.3
2016-Feb-07 16:33N 58°58' W 003°18'0 0.0
2016-Feb-07 14:23N 58°58' W 003°18'0 0.0
2016-Feb-07 13:29N 58°58' W 003°18'1010.7
2016-Feb-07 12:33N 58°50' W 003°29'9 3.8
2016-Feb-07 10:06N 58°40' W 003°31'1018.4
2016-Feb-07 09:33N 58°50' W 003°28'9 2.7
2016-Feb-07 06:10N 58°58' W 003°18'0 0.0
2016-Feb-07 05:31N 58°58' W 003°18'0 0.0
2016-Feb-07 04:25N 58°58' W 003°18'0 0.0
2016-Feb-07 01:19N 58°58' W 003°18'0 0.0
2016-Feb-07 00:19N 58°58' W 003°18'0 0.0
2016-Feb-06 20:28N 58°58' W 003°18'1112.3
2016-Feb-06 19:33N 58°48' W 003°30'2 1.2
2016-Feb-06 17:33N 58°46' W 003°30'13 3.3
2016-Feb-06 13:30N 58°58' W 003°18'1111.7
2016-Feb-06 12:33N 58°48' W 003°29'8 3.3
2016-Feb-06 10:08N 58°40' W 003°31'1017.9
2016-Feb-06 09:33N 58°51' W 003°28'9 8.7
2016-Feb-06 08:31N 58°58' W 003°18'0 0.0
2016-Feb-06 07:19N 58°58' W 003°18'0 0.0
2016-Feb-06 06:31N 58°58' W 003°18'0 0.0
2016-Feb-06 05:07N 58°58' W 003°18'0 0.0
2016-Feb-06 04:25N 58°58' W 003°18'0 0.0
2016-Feb-06 03:31N 58°58' W 003°18'0 0.0
2016-Feb-06 02:31N 58°58' W 003°18'0 0.0
2016-Feb-06 01:31N 58°58' W 003°18'0 0.0
2016-Feb-06 00:31N 58°58' W 003°18'0 0.0
2016-Feb-05 23:31N 58°58' W 003°18'0 0.0
2016-Feb-05 22:31N 58°58' W 003°18'0 0.0
2016-Feb-05 21:31N 58°58' W 003°18'0 0.0
2016-Feb-05 20:26N 58°58' W 003°18'1112.5
2016-Feb-05 19:33N 58°49' W 003°30'12 9.0
2016-Feb-05 18:13N 58°37' W 003°32'1217.6
2016-Feb-05 17:33N 58°48' W 003°29'1111.2
2016-Feb-05 16:33N 58°58' W 003°18'0 0.0
2016-Feb-05 10:10N 58°58' W 003°18'711.3
2016-Feb-05 09:33N 58°53' W 003°28'11 5.4
2016-Feb-05 07:33N 58°43' W 003°30'1615.7
2016-Feb-05 06:33N 58°57' W 003°18'1 0.9
2016-Feb-05 05:26N 58°58' W 003°18'0 0.0
2016-Feb-05 04:26N 58°58' W 003°18'0 0.0
2016-Feb-05 03:14N 58°58' W 003°18'0 0.0
2016-Feb-05 02:20N 58°58' W 003°18'0 0.0
2016-Feb-05 01:32N 58°58' W 003°18'0 0.0
2016-Feb-04 20:24N 58°58' W 003°18'1113.3
2016-Feb-04 19:33N 58°48' W 003°29'1 0.7
2016-Feb-04 17:33N 58°47' W 003°29'12 2.0
2016-Feb-04 11:22N 58°58' W 003°18'0 0.0
2016-Feb-04 10:10N 58°58' W 003°18'710.9
2016-Feb-04 09:33N 58°53' W 003°27'11 5.7
2016-Feb-04 07:33N 58°42' W 003°30'1616.3
2016-Feb-04 06:33N 58°57' W 003°17'1 0.1
2016-Feb-04 01:25N 58°58' W 003°18'0 0.0
2016-Feb-04 00:31N 58°58' W 003°18'0 0.0
2016-Feb-03 23:31N 58°58' W 003°18'0 0.0
2016-Feb-03 22:31N 58°58' W 003°18'0 0.0
2016-Feb-03 21:25N 58°58' W 003°18'0 0.0
2016-Feb-03 20:33N 58°58' W 003°18'1313.0
2016-Feb-03 19:33N 58°46' W 003°29'1 0.4
2016-Feb-03 17:33N 58°47' W 003°29'12 4.9
2016-Feb-03 15:04N 58°58' W 003°18'0 0.0
2016-Feb-03 14:28N 58°58' W 003°18'  

Dump ship's entire track history